Aeroporto :
LOGIN :

Iscrizione | Disclaimer

   EN    FR    IT 

 










Sommario :    VFR   VFR Marginale   IFR   IFR Intensivo   IFR Molto Intensivo
Visibilità : 
Base nubi : 
>= 8 km
>= 3000ft
5 / 8 km
1000 / 3000 ft
1500m / 5 km
500 / 1000 ft
800 / 1500m
200 / 500 ft
< 800m
< 200 ft
Simboli :   Temporali  Nebbia  Neve Forte  Precipitazioni Forti  Vento > 20 kt
SIGMETs :   Varie  Temporali  Ghiacco  Turbolenza  Onda orograficha  Ceneri Vulcaniche






- Altitudine del aeroporto : 333 ft


LIPL - Ghedi Brescia (Mil)

ULTIMO METAR :
  • 051355Z 28005KT CAVOK 27/20 Q1006 RMK FEW FEW120 VIS MIN 9999 WIND THR31 25006KT WIND THR13 25007KT BLU

METARs OBSOLETI :
  • 051255Z 27004KT CAVOK 27/20 Q1006 RMK FEW FEW120 VIS MIN 9999 WIND THR31 26006KT WIND THR13 29006KT BLU
  • 051155Z 26005KT CAVOK 26/19 Q1006 RMK FEW FEW120 VIS MIN 9999 WIND THR31 28008KT WIND THR13 27005KT BLU
  • 051055Z 30008KT CAVOK 25/18 Q1006 RMK SCT SCT120 VIS MIN 9999 WIND THR31 29008KT WIND THR13 28006KT BLU

TAF TAF LIPL
Valido dal 05 a 12 ore il 05 a 21 ore UTC


051100Z 0512/0521 28008KT 9999 FEW050



MetMap, La meteo Aeronautica in un colpo d'occhio ! - Copyright ORBIFLY Dicembre 2007 - Disclaimer

ORBIFLY MET'MAP TEAM :

Programmazione e sviluppo : Alexandra Zaïnal
Concezione : Baudouin d'Aumeries
Aiuto per la programmazione : Marc-Olivier Méhu
Supporto tecnico e logistico : Manuel Goepfert
Aiuto per la traduzione : Arnaldo La Scala

Contatto : metmap@orbifly.com




FONTI E CREDITI :

   NOAA